sensor_id;sensor_type;location;lat;lon;timestamp;P1;durP1;ratioP1;P2;durP2;ratioP2
20880;SDS011;10600;53.096;8.802;2023-11-19T00:00:20;23.58;;;13.40;;
20880;SDS011;10600;53.096;8.802;2023-11-19T00:01:21;21.02;;;11.80;;
20880;SDS011;10600;53.096;8.802;2023-11-19T00:02:21;18.98;;;12.57;;
20880;SDS011;10600;53.096;8.802;2023-11-19T00:03:22;22.13;;;13.15;;
20880;SDS011;10600;53.096;8.802;2023-11-19T00:04:23;22.08;;;13.60;;
20880;SDS011;10600;53.096;8.802;2023-11-19T00:05:24;21.02;;;12.63;;
20880;SDS011;10600;53.096;8.802;2023-11-19T00:06:24;20.95;;;12.30;;
20880;SDS011;10600;53.096;8.802;2023-11-19T00:07:25;20.88;;;13.55;;
20880;SDS011;10600;53.096;8.802;2023-11-19T00:08:26;24.13;;;14.18;;
20880;SDS011;10600;53.096;8.802;2023-11-19T00:09:27;30.67;;;17.17;;
20880;SDS011;10600;53.096;8.802;2023-11-19T00:10:27;26.98;;;16.85;;
20880;SDS011;10600;53.096;8.802;2023-11-19T00:11:28;24.00;;;15.32;;
20880;SDS011;10600;53.096;8.802;2023-11-19T00:12:29;48.25;;;25.83;;
20880;SDS011;10600;53.096;8.802;2023-11-19T00:13:29;23.60;;;14.35;;
20880;SDS011;10600;53.096;8.802;2023-11-19T00:14:30;26.30;;;14.25;;
20880;SDS011;10600;53.096;8.802;2023-11-19T00:15:31;22.55;;;12.95;;
20880;SDS011;10600;53.096;8.802;2023-11-19T00:16:31;20.55;;;12.70;;
20880;SDS011;10600;53.096;8.802;2023-11-19T00:17:32;23.25;;;13.95;;
20880;SDS011;10600;53.096;8.802;2023-11-19T00:18:33;21.35;;;13.80;;
20880;SDS011;10600;53.096;8.802;2023-11-19T00:19:33;22.45;;;14.07;;
20880;SDS011;10600;53.096;8.802;2023-11-19T00:20:34;22.70;;;14.05;;
20880;SDS011;10600;53.096;8.802;2023-11-19T00:21:34;25.60;;;14.10;;
20880;SDS011;10600;53.096;8.802;2023-11-19T00:22:39;23.85;;;13.90;;
20880;SDS011;10600;53.096;8.802;2023-11-19T00:23:42;24.58;;;14.70;;
20880;SDS011;10600;53.096;8.802;2023-11-19T00:24:43;27.60;;;15.45;;
20880;SDS011;10600;53.096;8.802;2023-11-19T00:25:44;29.63;;;15.60;;
20880;SDS011;10600;53.096;8.802;2023-11-19T00:26:45;32.30;;;15.25;;
20880;SDS011;10600;53.096;8.802;2023-11-19T00:27:46;28.15;;;15.20;;
20880;SDS011;10600;53.096;8.802;2023-11-19T00:28:47;25.17;;;14.75;;
20880;SDS011;10600;53.096;8.802;2023-11-19T00:29:48;28.80;;;16.40;;
20880;SDS011;10600;53.096;8.802;2023-11-19T00:30:49;27.88;;;16.40;;
20880;SDS011;10600;53.096;8.802;2023-11-19T00:31:49;28.83;;;16.20;;
20880;SDS011;10600;53.096;8.802;2023-11-19T00:32:50;28.23;;;16.55;;
20880;SDS011;10600;53.096;8.802;2023-11-19T00:33:51;30.17;;;16.77;;
20880;SDS011;10600;53.096;8.802;2023-11-19T00:34:51;29.55;;;17.08;;
20880;SDS011;10600;53.096;8.802;2023-11-19T00:35:58;32.53;;;17.25;;
20880;SDS011;10600;53.096;8.802;2023-11-19T00:36:58;32.63;;;17.85;;
20880;SDS011;10600;53.096;8.802;2023-11-19T00:37:59;29.63;;;16.80;;
20880;SDS011;10600;53.096;8.802;2023-11-19T00:39:00;33.45;;;17.45;;
20880;SDS011;10600;53.096;8.802;2023-11-19T00:40:01;33.47;;;17.27;;
20880;SDS011;10600;53.096;8.802;2023-11-19T00:41:07;33.13;;;16.98;;
20880;SDS011;10600;53.096;8.802;2023-11-19T00:42:08;32.35;;;18.65;;
20880;SDS011;10600;53.096;8.802;2023-11-19T00:43:10;33.72;;;18.73;;
20880;SDS011;10600;53.096;8.802;2023-11-19T00:44:13;31.77;;;17.95;;
20880;SDS011;10600;53.096;8.802;2023-11-19T00:45:14;35.08;;;17.88;;
20880;SDS011;10600;53.096;8.802;2023-11-19T00:46:15;33.35;;;18.55;;
20880;SDS011;10600;53.096;8.802;2023-11-19T00:47:18;35.33;;;19.17;;
20880;SDS011;10600;53.096;8.802;2023-11-19T00:48:22;37.42;;;19.42;;
20880;SDS011;10600;53.096;8.802;2023-11-19T00:49:22;37.83;;;20.00;;
20880;SDS011;10600;53.096;8.802;2023-11-19T00:50:23;37.40;;;19.63;;
20880;SDS011;10600;53.096;8.802;2023-11-19T00:51:24;35.38;;;19.63;;
20880;SDS011;10600;53.096;8.802;2023-11-19T00:52:24;37.38;;;18.80;;
20880;SDS011;10600;53.096;8.802;2023-11-19T00:53:25;41.63;;;20.08;;
20880;SDS011;10600;53.096;8.802;2023-11-19T00:54:26;38.22;;;20.17;;
20880;SDS011;10600;53.096;8.802;2023-11-19T00:55:26;40.33;;;19.80;;
20880;SDS011;10600;53.096;8.802;2023-11-19T00:56:27;43.15;;;20.50;;
20880;SDS011;10600;53.096;8.802;2023-11-19T00:57:28;39.03;;;19.75;;
20880;SDS011;10600;53.096;8.802;2023-11-19T00:58:29;43.90;;;21.40;;
20880;SDS011;10600;53.096;8.802;2023-11-19T00:59:29;36.67;;;20.60;;
20880;SDS011;10600;53.096;8.802;2023-11-19T01:00:33;37.28;;;20.50;;
20880;SDS011;10600;53.096;8.802;2023-11-19T01:01:36;37.63;;;20.23;;
20880;SDS011;10600;53.096;8.802;2023-11-19T01:02:36;38.33;;;19.88;;
20880;SDS011;10600;53.096;8.802;2023-11-19T01:03:37;41.83;;;21.40;;
20880;SDS011;10600;53.096;8.802;2023-11-19T01:04:46;42.67;;;20.75;;
20880;SDS011;10600;53.096;8.802;2023-11-19T01:05:47;40.03;;;20.52;;
20880;SDS011;10600;53.096;8.802;2023-11-19T01:06:50;38.97;;;20.40;;
20880;SDS011;10600;53.096;8.802;2023-11-19T01:07:51;37.88;;;19.90;;
20880;SDS011;10600;53.096;8.802;2023-11-19T01:08:53;39.53;;;20.45;;
20880;SDS011;10600;53.096;8.802;2023-11-19T01:09:55;52.25;;;26.52;;
20880;SDS011;10600;53.096;8.802;2023-11-19T01:10:55;45.25;;;23.13;;
20880;SDS011;10600;53.096;8.802;2023-11-19T01:11:56;53.33;;;26.90;;
20880;SDS011;10600;53.096;8.802;2023-11-19T01:12:56;41.88;;;21.10;;
20880;SDS011;10600;53.096;8.802;2023-11-19T01:13:57;44.03;;;22.15;;
20880;SDS011;10600;53.096;8.802;2023-11-19T01:14:58;40.15;;;21.38;;
20880;SDS011;10600;53.096;8.802;2023-11-19T01:15:58;42.00;;;21.50;;
20880;SDS011;10600;53.096;8.802;2023-11-19T01:16:59;41.78;;;21.83;;
20880;SDS011;10600;53.096;8.802;2023-11-19T01:18:00;42.03;;;21.45;;
20880;SDS011;10600;53.096;8.802;2023-11-19T01:19:05;39.85;;;20.73;;
20880;SDS011;10600;53.096;8.802;2023-11-19T01:20:05;43.00;;;22.77;;
20880;SDS011;10600;53.096;8.802;2023-11-19T01:21:06;44.47;;;21.13;;
20880;SDS011;10600;53.096;8.802;2023-11-19T01:22:07;40.85;;;22.48;;
20880;SDS011;10600;53.096;8.802;2023-11-19T01:23:07;42.78;;;23.23;;
20880;SDS011;10600;53.096;8.802;2023-11-19T01:24:08;47.30;;;23.25;;
20880;SDS011;10600;53.096;8.802;2023-11-19T01:25:09;47.35;;;23.08;;
20880;SDS011;10600;53.096;8.802;2023-11-19T01:26:10;48.20;;;24.13;;
20880;SDS011;10600;53.096;8.802;2023-11-19T01:27:15;43.22;;;22.83;;
20880;SDS011;10600;53.096;8.802;2023-11-19T01:28:15;45.05;;;23.15;;
20880;SDS011;10600;53.096;8.802;2023-11-19T01:29:16;44.47;;;21.80;;
20880;SDS011;10600;53.096;8.802;2023-11-19T01:30:16;45.55;;;22.15;;
20880;SDS011;10600;53.096;8.802;2023-11-19T01:31:17;43.42;;;21.42;;
20880;SDS011;10600;53.096;8.802;2023-11-19T01:32:18;44.85;;;21.90;;
20880;SDS011;10600;53.096;8.802;2023-11-19T01:33:18;46.38;;;22.45;;
20880;SDS011;10600;53.096;8.802;2023-11-19T01:34:19;46.58;;;22.05;;
20880;SDS011;10600;53.096;8.802;2023-11-19T01:35:20;40.55;;;21.02;;
20880;SDS011;10600;53.096;8.802;2023-11-19T01:36:20;45.45;;;21.95;;
20880;SDS011;10600;53.096;8.802;2023-11-19T01:37:21;39.50;;;21.05;;
20880;SDS011;10600;53.096;8.802;2023-11-19T01:38:21;45.03;;;22.38;;
20880;SDS011;10600;53.096;8.802;2023-11-19T01:39:22;42.50;;;21.15;;
20880;SDS011;10600;53.096;8.802;2023-11-19T01:40:22;43.25;;;20.98;;
20880;SDS011;10600;53.096;8.802;2023-11-19T01:41:23;41.67;;;21.23;;
20880;SDS011;10600;53.096;8.802;2023-11-19T01:42:24;48.20;;;23.30;;
20880;SDS011;10600;53.096;8.802;2023-11-19T01:44:35;43.20;;;21.40;;
20880;SDS011;10600;53.096;8.802;2023-11-19T01:45:36;42.78;;;22.30;;
20880;SDS011;10600;53.096;8.802;2023-11-19T01:46:37;45.65;;;22.45;;
20880;SDS011;10600;53.096;8.802;2023-11-19T01:47:38;47.22;;;23.35;;
20880;SDS011;10600;53.096;8.802;2023-11-19T01:48:42;47.40;;;23.15;;
20880;SDS011;10600;53.096;8.802;2023-11-19T01:49:45;47.35;;;24.33;;
20880;SDS011;10600;53.096;8.802;2023-11-19T01:50:45;48.38;;;23.38;;
20880;SDS011;10600;53.096;8.802;2023-11-19T01:51:46;46.60;;;22.52;;
20880;SDS011;10600;53.096;8.802;2023-11-19T01:52:47;48.15;;;23.08;;
20880;SDS011;10600;53.096;8.802;2023-11-19T01:53:48;51.95;;;24.30;;
20880;SDS011;10600;53.096;8.802;2023-11-19T01:54:49;45.65;;;23.20;;
20880;SDS011;10600;53.096;8.802;2023-11-19T01:55:51;47.72;;;23.45;;
20880;SDS011;10600;53.096;8.802;2023-11-19T01:56:52;48.85;;;24.08;;
20880;SDS011;10600;53.096;8.802;2023-11-19T01:57:58;49.38;;;23.52;;
20880;SDS011;10600;53.096;8.802;2023-11-19T01:59:01;53.10;;;25.65;;
20880;SDS011;10600;53.096;8.802;2023-11-19T02:00:03;50.35;;;24.38;;
20880;SDS011;10600;53.096;8.802;2023-11-19T02:01:05;51.60;;;24.88;;
20880;SDS011;10600;53.096;8.802;2023-11-19T02:02:07;50.53;;;24.20;;
20880;SDS011;10600;53.096;8.802;2023-11-19T02:03:07;48.80;;;23.85;;
20880;SDS011;10600;53.096;8.802;2023-11-19T02:04:08;47.75;;;23.98;;
20880;SDS011;10600;53.096;8.802;2023-11-19T02:05:11;47.25;;;23.85;;
20880;SDS011;10600;53.096;8.802;2023-11-19T02:06:13;50.65;;;24.25;;
20880;SDS011;10600;53.096;8.802;2023-11-19T02:07:15;49.95;;;23.95;;
20880;SDS011;10600;53.096;8.802;2023-11-19T02:08:17;52.63;;;24.33;;
20880;SDS011;10600;53.096;8.802;2023-11-19T02:09:18;58.25;;;25.83;;
20880;SDS011;10600;53.096;8.802;2023-11-19T02:10:19;57.65;;;25.25;;
20880;SDS011;10600;53.096;8.802;2023-11-19T02:11:19;54.75;;;25.48;;
20880;SDS011;10600;53.096;8.802;2023-11-19T02:12:20;52.13;;;25.20;;
20880;SDS011;10600;53.096;8.802;2023-11-19T02:13:21;57.08;;;26.02;;
20880;SDS011;10600;53.096;8.802;2023-11-19T02:14:25;56.65;;;25.83;;
20880;SDS011;10600;53.096;8.802;2023-11-19T02:15:26;55.95;;;26.25;;
20880;SDS011;10600;53.096;8.802;2023-11-19T02:16:26;53.83;;;24.70;;
20880;SDS011;10600;53.096;8.802;2023-11-19T02:17:28;61.97;;;26.10;;
20880;SDS011;10600;53.096;8.802;2023-11-19T02:18:34;59.47;;;26.42;;
20880;SDS011;10600;53.096;8.802;2023-11-19T02:19:34;58.97;;;26.02;;
20880;SDS011;10600;53.096;8.802;2023-11-19T02:20:35;60.33;;;25.88;;
20880;SDS011;10600;53.096;8.802;2023-11-19T02:21:36;58.55;;;26.02;;
20880;SDS011;10600;53.096;8.802;2023-11-19T02:22:37;58.55;;;26.58;;
20880;SDS011;10600;53.096;8.802;2023-11-19T02:23:38;61.35;;;27.90;;
20880;SDS011;10600;53.096;8.802;2023-11-19T02:24:38;62.08;;;27.33;;
20880;SDS011;10600;53.096;8.802;2023-11-19T02:25:39;60.78;;;27.40;;
20880;SDS011;10600;53.096;8.802;2023-11-19T02:26:47;60.65;;;26.95;;
20880;SDS011;10600;53.096;8.802;2023-11-19T02:27:59;61.20;;;27.42;;
20880;SDS011;10600;53.096;8.802;2023-11-19T02:29:02;63.40;;;29.38;;
20880;SDS011;10600;53.096;8.802;2023-11-19T02:30:03;64.65;;;29.20;;
20880;SDS011;10600;53.096;8.802;2023-11-19T02:31:06;60.78;;;27.35;;
20880;SDS011;10600;53.096;8.802;2023-11-19T02:32:09;61.75;;;28.52;;
20880;SDS011;10600;53.096;8.802;2023-11-19T02:33:10;62.42;;;28.48;;
20880;SDS011;10600;53.096;8.802;2023-11-19T02:34:10;63.67;;;27.98;;
20880;SDS011;10600;53.096;8.802;2023-11-19T02:35:12;63.25;;;28.15;;
20880;SDS011;10600;53.096;8.802;2023-11-19T02:36:13;65.18;;;29.60;;
20880;SDS011;10600;53.096;8.802;2023-11-19T02:37:13;63.28;;;29.83;;
20880;SDS011;10600;53.096;8.802;2023-11-19T02:38:14;66.43;;;29.92;;
20880;SDS011;10600;53.096;8.802;2023-11-19T02:39:15;66.40;;;29.73;;
20880;SDS011;10600;53.096;8.802;2023-11-19T02:40:21;66.72;;;29.17;;
20880;SDS011;10600;53.096;8.802;2023-11-19T02:41:24;72.82;;;31.05;;
20880;SDS011;10600;53.096;8.802;2023-11-19T02:42:24;69.05;;;31.10;;
20880;SDS011;10600;53.096;8.802;2023-11-19T02:43:25;69.68;;;31.70;;
20880;SDS011;10600;53.096;8.802;2023-11-19T02:44:25;72.25;;;31.67;;
20880;SDS011;10600;53.096;8.802;2023-11-19T02:45:29;73.38;;;31.35;;
20880;SDS011;10600;53.096;8.802;2023-11-19T02:46:31;75.28;;;33.00;;
20880;SDS011;10600;53.096;8.802;2023-11-19T02:47:32;76.38;;;32.38;;
20880;SDS011;10600;53.096;8.802;2023-11-19T02:48:33;76.28;;;33.97;;
20880;SDS011;10600;53.096;8.802;2023-11-19T02:49:38;79.10;;;33.05;;
20880;SDS011;10600;53.096;8.802;2023-11-19T02:50:38;72.03;;;33.13;;
20880;SDS011;10600;53.096;8.802;2023-11-19T02:51:39;74.80;;;31.40;;
20880;SDS011;10600;53.096;8.802;2023-11-19T02:52:43;78.57;;;34.25;;
20880;SDS011;10600;53.096;8.802;2023-11-19T02:53:45;81.38;;;33.53;;
20880;SDS011;10600;53.096;8.802;2023-11-19T02:54:48;74.55;;;32.90;;
20880;SDS011;10600;53.096;8.802;2023-11-19T02:55:49;77.75;;;32.22;;
20880;SDS011;10600;53.096;8.802;2023-11-19T02:56:50;78.93;;;34.00;;
20880;SDS011;10600;53.096;8.802;2023-11-19T02:57:55;78.38;;;33.45;;
20880;SDS011;10600;53.096;8.802;2023-11-19T02:58:58;77.05;;;32.83;;
20880;SDS011;10600;53.096;8.802;2023-11-19T02:59:59;79.82;;;34.72;;
20880;SDS011;10600;53.096;8.802;2023-11-19T03:01:00;73.78;;;33.22;;
20880;SDS011;10600;53.096;8.802;2023-11-19T03:02:09;67.72;;;29.85;;
20880;SDS011;10600;53.096;8.802;2023-11-19T03:03:15;80.20;;;32.50;;
20880;SDS011;10600;53.096;8.802;2023-11-19T03:04:22;71.75;;;30.50;;
20880;SDS011;10600;53.096;8.802;2023-11-19T03:05:23;76.13;;;32.10;;
20880;SDS011;10600;53.096;8.802;2023-11-19T03:06:24;78.03;;;34.28;;
20880;SDS011;10600;53.096;8.802;2023-11-19T03:07:25;72.47;;;31.52;;
20880;SDS011;10600;53.096;8.802;2023-11-19T03:08:26;67.75;;;31.98;;
20880;SDS011;10600;53.096;8.802;2023-11-19T03:09:27;72.90;;;31.75;;
20880;SDS011;10600;53.096;8.802;2023-11-19T03:10:29;81.72;;;33.80;;
20880;SDS011;10600;53.096;8.802;2023-11-19T03:11:29;70.65;;;32.13;;
20880;SDS011;10600;53.096;8.802;2023-11-19T03:12:30;70.65;;;31.48;;
20880;SDS011;10600;53.096;8.802;2023-11-19T03:13:30;73.28;;;32.10;;
20880;SDS011;10600;53.096;8.802;2023-11-19T03:14:32;70.50;;;30.70;;
20880;SDS011;10600;53.096;8.802;2023-11-19T03:15:34;67.05;;;30.83;;
20880;SDS011;10600;53.096;8.802;2023-11-19T03:16:34;64.45;;;28.55;;
20880;SDS011;10600;53.096;8.802;2023-11-19T03:17:36;71.47;;;33.47;;
20880;SDS011;10600;53.096;8.802;2023-11-19T03:18:38;70.20;;;31.33;;
20880;SDS011;10600;53.096;8.802;2023-11-19T03:19:39;67.50;;;30.85;;
20880;SDS011;10600;53.096;8.802;2023-11-19T03:20:40;65.38;;;29.30;;
20880;SDS011;10600;53.096;8.802;2023-11-19T03:21:40;70.25;;;32.28;;
20880;SDS011;10600;53.096;8.802;2023-11-19T03:22:41;65.28;;;29.48;;
20880;SDS011;10600;53.096;8.802;2023-11-19T03:23:42;69.10;;;31.05;;
20880;SDS011;10600;53.096;8.802;2023-11-19T03:24:43;73.57;;;32.22;;
20880;SDS011;10600;53.096;8.802;2023-11-19T03:25:44;65.93;;;27.63;;
20880;SDS011;10600;53.096;8.802;2023-11-19T03:26:48;72.13;;;31.15;;
20880;SDS011;10600;53.096;8.802;2023-11-19T03:27:50;67.78;;;30.70;;
20880;SDS011;10600;53.096;8.802;2023-11-19T03:28:50;64.18;;;28.15;;
20880;SDS011;10600;53.096;8.802;2023-11-19T03:29:51;70.45;;;33.13;;
20880;SDS011;10600;53.096;8.802;2023-11-19T03:30:52;67.85;;;30.27;;
20880;SDS011;10600;53.096;8.802;2023-11-19T03:31:53;70.43;;;31.58;;
20880;SDS011;10600;53.096;8.802;2023-11-19T03:32:54;63.20;;;27.60;;
20880;SDS011;10600;53.096;8.802;2023-11-19T03:33:55;63.92;;;29.95;;
20880;SDS011;10600;53.096;8.802;2023-11-19T03:34:58;69.72;;;29.85;;
20880;SDS011;10600;53.096;8.802;2023-11-19T03:35:59;65.97;;;28.33;;
20880;SDS011;10600;53.096;8.802;2023-11-19T03:37:00;70.95;;;30.20;;
20880;SDS011;10600;53.096;8.802;2023-11-19T03:38:00;73.32;;;31.48;;
20880;SDS011;10600;53.096;8.802;2023-11-19T03:39:01;64.45;;;28.88;;
20880;SDS011;10600;53.096;8.802;2023-11-19T03:40:03;69.45;;;30.98;;
20880;SDS011;10600;53.096;8.802;2023-11-19T03:41:10;72.57;;;29.42;;
20880;SDS011;10600;53.096;8.802;2023-11-19T03:42:11;70.38;;;31.63;;
20880;SDS011;10600;53.096;8.802;2023-11-19T03:43:13;65.93;;;28.73;;
20880;SDS011;10600;53.096;8.802;2023-11-19T03:44:14;68.95;;;30.23;;
20880;SDS011;10600;53.096;8.802;2023-11-19T03:45:15;54.58;;;24.63;;
20880;SDS011;10600;53.096;8.802;2023-11-19T03:46:16;78.07;;;30.38;;
20880;SDS011;10600;53.096;8.802;2023-11-19T03:47:22;70.90;;;31.45;;
20880;SDS011;10600;53.096;8.802;2023-11-19T03:48:23;70.68;;;31.00;;
20880;SDS011;10600;53.096;8.802;2023-11-19T03:49:24;70.07;;;31.48;;
20880;SDS011;10600;53.096;8.802;2023-11-19T03:50:24;69.13;;;29.48;;
20880;SDS011;10600;53.096;8.802;2023-11-19T03:51:25;66.90;;;30.92;;
20880;SDS011;10600;53.096;8.802;2023-11-19T03:52:28;63.67;;;29.23;;
20880;SDS011;10600;53.096;8.802;2023-11-19T03:53:30;73.25;;;30.13;;
20880;SDS011;10600;53.096;8.802;2023-11-19T03:54:30;67.38;;;29.33;;
20880;SDS011;10600;53.096;8.802;2023-11-19T03:55:32;72.72;;;31.25;;
20880;SDS011;10600;53.096;8.802;2023-11-19T03:56:33;62.72;;;30.58;;
20880;SDS011;10600;53.096;8.802;2023-11-19T03:57:34;63.97;;;28.63;;
20880;SDS011;10600;53.096;8.802;2023-11-19T03:58:35;71.35;;;30.23;;
20880;SDS011;10600;53.096;8.802;2023-11-19T03:59:36;67.93;;;28.85;;
20880;SDS011;10600;53.096;8.802;2023-11-19T04:00:36;67.28;;;32.33;;
20880;SDS011;10600;53.096;8.802;2023-11-19T04:01:37;65.88;;;27.98;;
20880;SDS011;10600;53.096;8.802;2023-11-19T04:02:38;62.05;;;29.85;;
20880;SDS011;10600;53.096;8.802;2023-11-19T04:03:39;67.45;;;29.15;;
20880;SDS011;10600;53.096;8.802;2023-11-19T04:04:39;64.43;;;29.60;;
20880;SDS011;10600;53.096;8.802;2023-11-19T04:05:40;66.47;;;30.08;;
20880;SDS011;10600;53.096;8.802;2023-11-19T04:06:40;72.38;;;29.50;;
20880;SDS011;10600;53.096;8.802;2023-11-19T04:07:44;75.53;;;28.73;;
20880;SDS011;10600;53.096;8.802;2023-11-19T04:08:44;73.28;;;31.02;;
20880;SDS011;10600;53.096;8.802;2023-11-19T04:09:45;72.15;;;30.83;;
20880;SDS011;10600;53.096;8.802;2023-11-19T04:10:47;63.85;;;28.83;;
20880;SDS011;10600;53.096;8.802;2023-11-19T04:11:47;66.20;;;29.70;;
20880;SDS011;10600;53.096;8.802;2023-11-19T04:12:48;65.03;;;30.20;;
20880;SDS011;10600;53.096;8.802;2023-11-19T04:13:48;69.28;;;30.55;;
20880;SDS011;10600;53.096;8.802;2023-11-19T04:14:49;72.80;;;30.42;;
20880;SDS011;10600;53.096;8.802;2023-11-19T04:15:50;70.40;;;31.55;;
20880;SDS011;10600;53.096;8.802;2023-11-19T04:16:50;69.55;;;30.48;;
20880;SDS011;10600;53.096;8.802;2023-11-19T04:17:51;74.10;;;30.38;;
20880;SDS011;10600;53.096;8.802;2023-11-19T04:18:52;79.88;;;30.23;;
20880;SDS011;10600;53.096;8.802;2023-11-19T04:19:52;61.88;;;26.60;;
20880;SDS011;10600;53.096;8.802;2023-11-19T04:20:53;67.63;;;31.13;;
20880;SDS011;10600;53.096;8.802;2023-11-19T04:21:53;71.57;;;31.23;;
20880;SDS011;10600;53.096;8.802;2023-11-19T04:22:54;66.35;;;30.38;;
20880;SDS011;10600;53.096;8.802;2023-11-19T04:23:55;65.97;;;30.00;;
20880;SDS011;10600;53.096;8.802;2023-11-19T04:24:55;69.20;;;31.38;;
20880;SDS011;10600;53.096;8.802;2023-11-19T04:25:56;66.60;;;30.80;;
20880;SDS011;10600;53.096;8.802;2023-11-19T04:26:57;70.43;;;29.83;;
20880;SDS011;10600;53.096;8.802;2023-11-19T04:27:58;68.47;;;28.90;;
20880;SDS011;10600;53.096;8.802;2023-11-19T04:28:58;57.33;;;21.90;;
20880;SDS011;10600;53.096;8.802;2023-11-19T04:29:59;66.90;;;28.55;;
20880;SDS011;10600;53.096;8.802;2023-11-19T04:31:01;67.47;;;29.48;;
20880;SDS011;10600;53.096;8.802;2023-11-19T04:32:04;64.22;;;28.05;;
20880;SDS011;10600;53.096;8.802;2023-11-19T04:33:05;68.82;;;29.60;;
20880;SDS011;10600;53.096;8.802;2023-11-19T04:34:06;66.07;;;29.75;;
20880;SDS011;10600;53.096;8.802;2023-11-19T04:35:07;64.10;;;28.33;;
20880;SDS011;10600;53.096;8.802;2023-11-19T04:36:08;73.57;;;30.77;;
20880;SDS011;10600;53.096;8.802;2023-11-19T04:37:09;71.40;;;28.00;;
20880;SDS011;10600;53.096;8.802;2023-11-19T04:38:10;68.45;;;29.40;;
20880;SDS011;10600;53.096;8.802;2023-11-19T04:39:11;72.00;;;28.30;;
20880;SDS011;10600;53.096;8.802;2023-11-19T04:40:13;64.05;;;28.10;;
20880;SDS011;10600;53.096;8.802;2023-11-19T04:41:13;64.50;;;28.88;;
20880;SDS011;10600;53.096;8.802;2023-11-19T04:42:14;63.95;;;28.58;;
20880;SDS011;10600;53.096;8.802;2023-11-19T04:43:17;68.07;;;28.30;;
20880;SDS011;10600;53.096;8.802;2023-11-19T04:44:17;68.40;;;29.63;;
20880;SDS011;10600;53.096;8.802;2023-11-19T04:45:18;61.95;;;28.10;;
20880;SDS011;10600;53.096;8.802;2023-11-19T04:46:18;60.13;;;26.67;;
20880;SDS011;10600;53.096;8.802;2023-11-19T04:47:19;59.38;;;29.05;;
20880;SDS011;10600;53.096;8.802;2023-11-19T04:48:19;67.88;;;27.42;;
20880;SDS011;10600;53.096;8.802;2023-11-19T04:49:20;59.83;;;25.45;;
20880;SDS011;10600;53.096;8.802;2023-11-19T04:50:23;65.13;;;28.27;;
20880;SDS011;10600;53.096;8.802;2023-11-19T04:51:23;60.80;;;25.13;;
20880;SDS011;10600;53.096;8.802;2023-11-19T04:52:24;55.28;;;25.48;;
20880;SDS011;10600;53.096;8.802;2023-11-19T04:53:25;67.60;;;27.80;;
20880;SDS011;10600;53.096;8.802;2023-11-19T04:54:25;61.63;;;26.38;;
20880;SDS011;10600;53.096;8.802;2023-11-19T04:55:26;58.47;;;27.13;;
20880;SDS011;10600;53.096;8.802;2023-11-19T04:56:26;58.30;;;27.35;;
20880;SDS011;10600;53.096;8.802;2023-11-19T04:57:27;64.35;;;26.45;;
20880;SDS011;10600;53.096;8.802;2023-11-19T04:58:28;57.13;;;24.88;;
20880;SDS011;10600;53.096;8.802;2023-11-19T04:59:29;54.55;;;25.25;;
20880;SDS011;10600;53.096;8.802;2023-11-19T05:00:29;59.50;;;25.98;;
20880;SDS011;10600;53.096;8.802;2023-11-19T05:01:33;49.47;;;25.08;;
20880;SDS011;10600;53.096;8.802;2023-11-19T05:02:34;63.50;;;25.67;;
20880;SDS011;10600;53.096;8.802;2023-11-19T05:03:35;60.22;;;27.83;;
20880;SDS011;10600;53.096;8.802;2023-11-19T05:04:36;60.55;;;25.88;;
20880;SDS011;10600;53.096;8.802;2023-11-19T05:05:37;59.63;;;25.60;;
20880;SDS011;10600;53.096;8.802;2023-11-19T05:06:38;65.57;;;26.25;;
20880;SDS011;10600;53.096;8.802;2023-11-19T05:07:38;62.53;;;27.27;;
20880;SDS011;10600;53.096;8.802;2023-11-19T05:08:39;65.20;;;25.52;;
20880;SDS011;10600;53.096;8.802;2023-11-19T05:09:39;57.15;;;23.10;;
20880;SDS011;10600;53.096;8.802;2023-11-19T05:10:44;57.80;;;21.15;;
20880;SDS011;10600;53.096;8.802;2023-11-19T05:11:44;68.80;;;26.38;;
20880;SDS011;10600;53.096;8.802;2023-11-19T05:12:45;57.88;;;25.38;;
20880;SDS011;10600;53.096;8.802;2023-11-19T05:13:45;54.72;;;25.92;;
20880;SDS011;10600;53.096;8.802;2023-11-19T05:14:46;58.83;;;26.48;;
20880;SDS011;10600;53.096;8.802;2023-11-19T05:15:50;58.05;;;23.90;;
20880;SDS011;10600;53.096;8.802;2023-11-19T05:16:50;60.90;;;23.20;;
20880;SDS011;10600;53.096;8.802;2023-11-19T05:17:51;59.28;;;23.15;;
20880;SDS011;10600;53.096;8.802;2023-11-19T05:18:51;53.15;;;24.25;;
20880;SDS011;10600;53.096;8.802;2023-11-19T05:19:52;60.40;;;22.35;;
20880;SDS011;10600;53.096;8.802;2023-11-19T05:20:55;56.78;;;21.98;;
20880;SDS011;10600;53.096;8.802;2023-11-19T05:21:56;55.88;;;24.02;;
20880;SDS011;10600;53.096;8.802;2023-11-19T05:22:57;60.38;;;22.88;;
20880;SDS011;10600;53.096;8.802;2023-11-19T05:24:00;48.78;;;20.02;;
20880;SDS011;10600;53.096;8.802;2023-11-19T05:25:00;56.88;;;23.63;;
20880;SDS011;10600;53.096;8.802;2023-11-19T05:26:02;51.83;;;21.92;;
20880;SDS011;10600;53.096;8.802;2023-11-19T05:27:02;50.28;;;21.65;;
20880;SDS011;10600;53.096;8.802;2023-11-19T05:28:03;42.15;;;18.33;;
20880;SDS011;10600;53.096;8.802;2023-11-19T05:29:04;50.08;;;21.45;;
20880;SDS011;10600;53.096;8.802;2023-11-19T05:30:05;50.33;;;20.42;;
20880;SDS011;10600;53.096;8.802;2023-11-19T05:31:07;50.53;;;20.95;;
20880;SDS011;10600;53.096;8.802;2023-11-19T05:32:08;52.58;;;20.25;;
20880;SDS011;10600;53.096;8.802;2023-11-19T05:33:08;49.25;;;20.08;;
20880;SDS011;10600;53.096;8.802;2023-11-19T05:34:09;49.85;;;20.05;;
20880;SDS011;10600;53.096;8.802;2023-11-19T05:35:10;54.13;;;21.10;;
20880;SDS011;10600;53.096;8.802;2023-11-19T05:36:11;39.40;;;14.77;;
20880;SDS011;10600;53.096;8.802;2023-11-19T05:37:15;46.65;;;19.67;;
20880;SDS011;10600;53.096;8.802;2023-11-19T05:38:15;54.38;;;18.10;;
20880;SDS011;10600;53.096;8.802;2023-11-19T05:39:16;45.08;;;18.08;;
20880;SDS011;10600;53.096;8.802;2023-11-19T05:40:18;45.25;;;17.77;;
20880;SDS011;10600;53.096;8.802;2023-11-19T05:41:20;44.97;;;16.25;;
20880;SDS011;10600;53.096;8.802;2023-11-19T05:42:21;45.15;;;17.88;;
20880;SDS011;10600;53.096;8.802;2023-11-19T05:43:23;47.22;;;15.43;;
20880;SDS011;10600;53.096;8.802;2023-11-19T05:44:24;40.17;;;15.55;;
20880;SDS011;10600;53.096;8.802;2023-11-19T05:45:24;47.78;;;14.48;;
20880;SDS011;10600;53.096;8.802;2023-11-19T05:46:25;37.15;;;13.68;;
20880;SDS011;10600;53.096;8.802;2023-11-19T05:47:27;46.63;;;16.23;;
20880;SDS011;10600;53.096;8.802;2023-11-19T05:48:27;43.20;;;16.38;;
20880;SDS011;10600;53.096;8.802;2023-11-19T05:49:28;42.65;;;15.07;;
20880;SDS011;10600;53.096;8.802;2023-11-19T05:50:29;41.80;;;14.95;;
20880;SDS011;10600;53.096;8.802;2023-11-19T05:51:30;45.00;;;14.50;;
20880;SDS011;10600;53.096;8.802;2023-11-19T05:52:30;53.58;;;16.13;;
20880;SDS011;10600;53.096;8.802;2023-11-19T05:53:33;43.47;;;14.95;;
20880;SDS011;10600;53.096;8.802;2023-11-19T05:54:34;40.10;;;13.90;;
20880;SDS011;10600;53.096;8.802;2023-11-19T05:55:37;31.55;;;12.98;;
20880;SDS011;10600;53.096;8.802;2023-11-19T05:56:47;35.63;;;13.60;;
20880;SDS011;10600;53.096;8.802;2023-11-19T05:57:48;38.70;;;13.02;;
20880;SDS011;10600;53.096;8.802;2023-11-19T05:58:51;36.28;;;10.95;;
20880;SDS011;10600;53.096;8.802;2023-11-19T05:59:52;32.58;;;10.73;;